sensor_id;sensor_type;location;lat;lon;timestamp;P1;durP1;ratioP1;P2;durP2;ratioP2
49029;SDS011;43337;52.070;4.508;2023-04-22T00:02:24;40.35;;;18.50;;
49029;SDS011;43337;52.070;4.508;2023-04-22T00:04:51;41.33;;;18.95;;
49029;SDS011;43337;52.070;4.508;2023-04-22T00:07:16;39.85;;;19.17;;
49029;SDS011;43337;52.070;4.508;2023-04-22T00:09:42;42.20;;;18.88;;
49029;SDS011;43337;52.070;4.508;2023-04-22T00:12:07;38.10;;;17.73;;
49029;SDS011;43337;52.070;4.508;2023-04-22T00:14:35;48.97;;;19.05;;
49029;SDS011;43337;52.070;4.508;2023-04-22T00:17:01;43.30;;;18.90;;
49029;SDS011;43337;52.070;4.508;2023-04-22T00:19:26;41.22;;;19.73;;
49029;SDS011;43337;52.070;4.508;2023-04-22T00:21:52;43.63;;;20.25;;
49029;SDS011;43337;52.070;4.508;2023-04-22T00:24:18;42.10;;;18.98;;
49029;SDS011;43337;52.070;4.508;2023-04-22T00:26:43;43.47;;;19.70;;
49029;SDS011;43337;52.070;4.508;2023-04-22T00:29:08;42.38;;;20.63;;
49029;SDS011;43337;52.070;4.508;2023-04-22T00:31:34;44.22;;;20.52;;
49029;SDS011;43337;52.070;4.508;2023-04-22T00:33:59;46.70;;;20.52;;
49029;SDS011;43337;52.070;4.508;2023-04-22T00:36:24;42.55;;;20.27;;
49029;SDS011;43337;52.070;4.508;2023-04-22T00:38:51;45.80;;;21.63;;
49029;SDS011;43337;52.070;4.508;2023-04-22T00:41:17;49.92;;;22.10;;
49029;SDS011;43337;52.070;4.508;2023-04-22T00:43:42;42.53;;;20.83;;
49029;SDS011;43337;52.070;4.508;2023-04-22T00:46:08;59.13;;;27.17;;
49029;SDS011;43337;52.070;4.508;2023-04-22T00:48:34;57.65;;;26.05;;
49029;SDS011;43337;52.070;4.508;2023-04-22T00:51:01;54.20;;;24.20;;
49029;SDS011;43337;52.070;4.508;2023-04-22T00:53:26;48.38;;;22.77;;
49029;SDS011;43337;52.070;4.508;2023-04-22T00:55:52;50.38;;;23.25;;
49029;SDS011;43337;52.070;4.508;2023-04-22T00:58:18;47.80;;;21.77;;
49029;SDS011;43337;52.070;4.508;2023-04-22T01:00:46;53.40;;;22.60;;
49029;SDS011;43337;52.070;4.508;2023-04-22T01:03:12;49.78;;;23.05;;
49029;SDS011;43337;52.070;4.508;2023-04-22T01:05:38;47.80;;;22.67;;
49029;SDS011;43337;52.070;4.508;2023-04-22T01:08:05;48.80;;;23.42;;
49029;SDS011;43337;52.070;4.508;2023-04-22T01:10:30;46.88;;;21.25;;
49029;SDS011;43337;52.070;4.508;2023-04-22T01:12:56;48.22;;;23.23;;
49029;SDS011;43337;52.070;4.508;2023-04-22T01:15:22;46.42;;;21.73;;
49029;SDS011;43337;52.070;4.508;2023-04-22T01:17:47;47.15;;;21.15;;
49029;SDS011;43337;52.070;4.508;2023-04-22T01:20:13;50.78;;;22.88;;
49029;SDS011;43337;52.070;4.508;2023-04-22T01:22:40;51.15;;;22.30;;
49029;SDS011;43337;52.070;4.508;2023-04-22T01:25:08;51.60;;;23.67;;
49029;SDS011;43337;52.070;4.508;2023-04-22T01:27:35;55.38;;;23.13;;
49029;SDS011;43337;52.070;4.508;2023-04-22T01:30:01;52.13;;;23.40;;
49029;SDS011;43337;52.070;4.508;2023-04-22T01:32:26;55.10;;;24.92;;
49029;SDS011;43337;52.070;4.508;2023-04-22T01:34:54;55.13;;;23.27;;
49029;SDS011;43337;52.070;4.508;2023-04-22T01:37:20;52.42;;;24.10;;
49029;SDS011;43337;52.070;4.508;2023-04-22T01:39:45;51.72;;;22.48;;
49029;SDS011;43337;52.070;4.508;2023-04-22T01:42:11;52.83;;;23.17;;
49029;SDS011;43337;52.070;4.508;2023-04-22T01:44:37;52.47;;;23.95;;
49029;SDS011;43337;52.070;4.508;2023-04-22T01:47:03;54.45;;;24.48;;
49029;SDS011;43337;52.070;4.508;2023-04-22T01:49:29;58.10;;;24.48;;
49029;SDS011;43337;52.070;4.508;2023-04-22T01:51:54;58.42;;;25.55;;
49029;SDS011;43337;52.070;4.508;2023-04-22T01:54:21;73.35;;;24.70;;
49029;SDS011;43337;52.070;4.508;2023-04-22T01:56:53;59.55;;;25.52;;
49029;SDS011;43337;52.070;4.508;2023-04-22T01:59:19;54.97;;;22.70;;
49029;SDS011;43337;52.070;4.508;2023-04-22T02:01:45;58.08;;;24.67;;
49029;SDS011;43337;52.070;4.508;2023-04-22T02:04:11;58.90;;;26.55;;
49029;SDS011;43337;52.070;4.508;2023-04-22T02:06:36;62.03;;;25.42;;
49029;SDS011;43337;52.070;4.508;2023-04-22T02:09:02;64.50;;;26.75;;
49029;SDS011;43337;52.070;4.508;2023-04-22T02:11:28;68.00;;;27.05;;
49029;SDS011;43337;52.070;4.508;2023-04-22T02:13:53;64.25;;;26.30;;
49029;SDS011;43337;52.070;4.508;2023-04-22T02:16:18;63.63;;;25.48;;
49029;SDS011;43337;52.070;4.508;2023-04-22T02:18:44;64.90;;;27.13;;
49029;SDS011;43337;52.070;4.508;2023-04-22T02:21:10;64.72;;;26.92;;
49029;SDS011;43337;52.070;4.508;2023-04-22T02:23:35;69.85;;;29.35;;
49029;SDS011;43337;52.070;4.508;2023-04-22T02:26:02;66.53;;;27.77;;
49029;SDS011;43337;52.070;4.508;2023-04-22T02:28:27;73.80;;;28.77;;
49029;SDS011;43337;52.070;4.508;2023-04-22T02:30:53;70.03;;;29.90;;
49029;SDS011;43337;52.070;4.508;2023-04-22T02:33:18;73.55;;;28.83;;
49029;SDS011;43337;52.070;4.508;2023-04-22T02:35:44;75.57;;;30.20;;
49029;SDS011;43337;52.070;4.508;2023-04-22T02:38:09;71.95;;;31.42;;
49029;SDS011;43337;52.070;4.508;2023-04-22T02:40:35;71.80;;;31.15;;
49029;SDS011;43337;52.070;4.508;2023-04-22T02:43:00;79.75;;;31.58;;
49029;SDS011;43337;52.070;4.508;2023-04-22T02:45:25;75.85;;;32.25;;
49029;SDS011;43337;52.070;4.508;2023-04-22T02:47:51;80.72;;;31.50;;
49029;SDS011;43337;52.070;4.508;2023-04-22T02:50:16;83.57;;;32.13;;
49029;SDS011;43337;52.070;4.508;2023-04-22T02:52:42;81.32;;;31.38;;
49029;SDS011;43337;52.070;4.508;2023-04-22T02:55:07;82.72;;;33.25;;
49029;SDS011;43337;52.070;4.508;2023-04-22T02:57:33;75.05;;;33.35;;
49029;SDS011;43337;52.070;4.508;2023-04-22T02:59:58;83.72;;;34.00;;
49029;SDS011;43337;52.070;4.508;2023-04-22T03:02:24;74.60;;;32.08;;
49029;SDS011;43337;52.070;4.508;2023-04-22T03:04:49;85.97;;;33.20;;
49029;SDS011;43337;52.070;4.508;2023-04-22T03:07:16;77.18;;;31.98;;
49029;SDS011;43337;52.070;4.508;2023-04-22T03:09:41;79.10;;;31.98;;
49029;SDS011;43337;52.070;4.508;2023-04-22T03:12:08;78.82;;;33.55;;
49029;SDS011;43337;52.070;4.508;2023-04-22T03:14:33;77.78;;;32.00;;
49029;SDS011;43337;52.070;4.508;2023-04-22T03:16:58;80.20;;;32.40;;
49029;SDS011;43337;52.070;4.508;2023-04-22T03:19:24;77.65;;;32.55;;
49029;SDS011;43337;52.070;4.508;2023-04-22T03:21:49;83.10;;;32.53;;
49029;SDS011;43337;52.070;4.508;2023-04-22T03:24:14;85.32;;;33.85;;
49029;SDS011;43337;52.070;4.508;2023-04-22T03:26:40;85.97;;;34.15;;
49029;SDS011;43337;52.070;4.508;2023-04-22T03:29:05;83.50;;;31.95;;
49029;SDS011;43337;52.070;4.508;2023-04-22T03:31:31;79.80;;;32.70;;
49029;SDS011;43337;52.070;4.508;2023-04-22T03:33:56;91.35;;;33.30;;
49029;SDS011;43337;52.070;4.508;2023-04-22T03:36:22;94.50;;;34.05;;
49029;SDS011;43337;52.070;4.508;2023-04-22T03:38:47;88.95;;;31.83;;
49029;SDS011;43337;52.070;4.508;2023-04-22T03:41:12;82.20;;;31.58;;
49029;SDS011;43337;52.070;4.508;2023-04-22T03:43:38;78.07;;;31.10;;
49029;SDS011;43337;52.070;4.508;2023-04-22T03:46:03;73.50;;;30.92;;
49029;SDS011;43337;52.070;4.508;2023-04-22T03:48:29;77.97;;;31.05;;
49029;SDS011;43337;52.070;4.508;2023-04-22T03:50:58;72.22;;;29.23;;
49029;SDS011;43337;52.070;4.508;2023-04-22T03:53:24;69.47;;;28.17;;
49029;SDS011;43337;52.070;4.508;2023-04-22T03:55:49;76.25;;;29.63;;
49029;SDS011;43337;52.070;4.508;2023-04-22T03:58:14;72.53;;;29.98;;
49029;SDS011;43337;52.070;4.508;2023-04-22T04:00:40;71.35;;;28.42;;
49029;SDS011;43337;52.070;4.508;2023-04-22T04:03:05;71.35;;;30.02;;
49029;SDS011;43337;52.070;4.508;2023-04-22T04:05:30;64.93;;;28.98;;
49029;SDS011;43337;52.070;4.508;2023-04-22T04:07:56;66.85;;;28.13;;
49029;SDS011;43337;52.070;4.508;2023-04-22T04:10:21;69.38;;;28.73;;
49029;SDS011;43337;52.070;4.508;2023-04-22T04:12:47;62.05;;;29.13;;
49029;SDS011;43337;52.070;4.508;2023-04-22T04:15:12;67.80;;;27.48;;
49029;SDS011;43337;52.070;4.508;2023-04-22T04:17:37;70.63;;;29.20;;
49029;SDS011;43337;52.070;4.508;2023-04-22T04:20:03;72.30;;;29.38;;
49029;SDS011;43337;52.070;4.508;2023-04-22T04:22:28;69.90;;;30.27;;
49029;SDS011;43337;52.070;4.508;2023-04-22T04:24:53;67.20;;;28.13;;
49029;SDS011;43337;52.070;4.508;2023-04-22T04:27:20;62.85;;;27.90;;
49029;SDS011;43337;52.070;4.508;2023-04-22T04:29:48;71.43;;;27.73;;
49029;SDS011;43337;52.070;4.508;2023-04-22T04:32:13;62.85;;;26.55;;
49029;SDS011;43337;52.070;4.508;2023-04-22T04:34:39;60.20;;;26.17;;
49029;SDS011;43337;52.070;4.508;2023-04-22T04:37:04;59.03;;;26.73;;
49029;SDS011;43337;52.070;4.508;2023-04-22T04:39:29;61.13;;;28.17;;
49029;SDS011;43337;52.070;4.508;2023-04-22T04:41:55;68.55;;;28.45;;
49029;SDS011;43337;52.070;4.508;2023-04-22T04:44:22;60.22;;;25.13;;
49029;SDS011;43337;52.070;4.508;2023-04-22T04:46:48;57.13;;;25.15;;
49029;SDS011;43337;52.070;4.508;2023-04-22T04:49:14;68.82;;;28.08;;
49029;SDS011;43337;52.070;4.508;2023-04-22T04:51:40;61.63;;;27.80;;
49029;SDS011;43337;52.070;4.508;2023-04-22T04:54:06;60.75;;;26.23;;
49029;SDS011;43337;52.070;4.508;2023-04-22T04:56:31;55.70;;;26.50;;
49029;SDS011;43337;52.070;4.508;2023-04-22T04:58:57;62.22;;;27.27;;
49029;SDS011;43337;52.070;4.508;2023-04-22T05:01:22;61.15;;;27.00;;
49029;SDS011;43337;52.070;4.508;2023-04-22T05:03:47;60.20;;;27.65;;
49029;SDS011;43337;52.070;4.508;2023-04-22T05:06:13;68.65;;;28.95;;
49029;SDS011;43337;52.070;4.508;2023-04-22T05:08:38;63.22;;;28.60;;
49029;SDS011;43337;52.070;4.508;2023-04-22T05:11:04;64.78;;;28.40;;
49029;SDS011;43337;52.070;4.508;2023-04-22T05:13:29;54.22;;;23.88;;
49029;SDS011;43337;52.070;4.508;2023-04-22T05:15:54;70.30;;;28.25;;
49029;SDS011;43337;52.070;4.508;2023-04-22T05:18:20;59.50;;;26.73;;
49029;SDS011;43337;52.070;4.508;2023-04-22T05:20:46;57.00;;;25.98;;
49029;SDS011;43337;52.070;4.508;2023-04-22T05:23:11;60.38;;;26.02;;
49029;SDS011;43337;52.070;4.508;2023-04-22T05:25:36;64.35;;;26.70;;
49029;SDS011;43337;52.070;4.508;2023-04-22T05:28:02;61.83;;;27.10;;
49029;SDS011;43337;52.070;4.508;2023-04-22T05:30:27;62.03;;;27.55;;
49029;SDS011;43337;52.070;4.508;2023-04-22T05:32:53;60.42;;;27.33;;
49029;SDS011;43337;52.070;4.508;2023-04-22T05:35:18;62.47;;;28.60;;
49029;SDS011;43337;52.070;4.508;2023-04-22T05:37:43;64.30;;;29.52;;
49029;SDS011;43337;52.070;4.508;2023-04-22T05:40:09;61.42;;;27.75;;
49029;SDS011;43337;52.070;4.508;2023-04-22T05:42:34;63.03;;;28.80;;
49029;SDS011;43337;52.070;4.508;2023-04-22T05:45:00;60.35;;;26.88;;
49029;SDS011;43337;52.070;4.508;2023-04-22T05:47:25;53.83;;;25.40;;
49029;SDS011;43337;52.070;4.508;2023-04-22T05:49:51;60.78;;;27.88;;
49029;SDS011;43337;52.070;4.508;2023-04-22T05:52:16;58.38;;;27.30;;
49029;SDS011;43337;52.070;4.508;2023-04-22T05:54:42;60.25;;;27.63;;
49029;SDS011;43337;52.070;4.508;2023-04-22T05:57:08;58.70;;;27.77;;
49029;SDS011;43337;52.070;4.508;2023-04-22T05:59:34;57.40;;;26.60;;
49029;SDS011;43337;52.070;4.508;2023-04-22T06:01:59;64.43;;;27.58;;
49029;SDS011;43337;52.070;4.508;2023-04-22T06:04:24;56.85;;;25.23;;
49029;SDS011;43337;52.070;4.508;2023-04-22T06:06:50;49.58;;;23.95;;
49029;SDS011;43337;52.070;4.508;2023-04-22T06:09:20;52.38;;;26.40;;
49029;SDS011;43337;52.070;4.508;2023-04-22T06:11:45;53.33;;;25.33;;
49029;SDS011;43337;52.070;4.508;2023-04-22T06:14:12;53.15;;;25.48;;
49029;SDS011;43337;52.070;4.508;2023-04-22T06:16:37;49.75;;;24.23;;
49029;SDS011;43337;52.070;4.508;2023-04-22T06:19:03;51.67;;;24.60;;
49029;SDS011;43337;52.070;4.508;2023-04-22T06:21:29;50.80;;;24.58;;
49029;SDS011;43337;52.070;4.508;2023-04-22T06:23:56;52.75;;;26.10;;
49029;SDS011;43337;52.070;4.508;2023-04-22T06:26:21;45.65;;;22.20;;
49029;SDS011;43337;52.070;4.508;2023-04-22T06:28:47;49.65;;;23.23;;
49029;SDS011;43337;52.070;4.508;2023-04-22T06:31:12;49.55;;;24.13;;
49029;SDS011;43337;52.070;4.508;2023-04-22T06:33:38;47.22;;;23.73;;
49029;SDS011;43337;52.070;4.508;2023-04-22T06:36:03;43.75;;;22.85;;
49029;SDS011;43337;52.070;4.508;2023-04-22T06:38:30;46.97;;;23.42;;
49029;SDS011;43337;52.070;4.508;2023-04-22T06:40:55;51.33;;;23.88;;
49029;SDS011;43337;52.070;4.508;2023-04-22T06:43:20;41.80;;;21.08;;
49029;SDS011;43337;52.070;4.508;2023-04-22T06:45:45;46.40;;;22.42;;
49029;SDS011;43337;52.070;4.508;2023-04-22T06:48:11;41.85;;;21.48;;
49029;SDS011;43337;52.070;4.508;2023-04-22T06:50:36;45.45;;;24.23;;
49029;SDS011;43337;52.070;4.508;2023-04-22T06:53:01;44.15;;;22.92;;
49029;SDS011;43337;52.070;4.508;2023-04-22T06:55:27;41.70;;;21.30;;
49029;SDS011;43337;52.070;4.508;2023-04-22T06:57:52;40.78;;;21.70;;
49029;SDS011;43337;52.070;4.508;2023-04-22T07:00:17;45.38;;;22.83;;
49029;SDS011;43337;52.070;4.508;2023-04-22T07:02:43;44.63;;;22.08;;
49029;SDS011;43337;52.070;4.508;2023-04-22T07:05:11;40.33;;;19.90;;
49029;SDS011;43337;52.070;4.508;2023-04-22T07:07:36;36.15;;;19.48;;
49029;SDS011;43337;52.070;4.508;2023-04-22T07:10:02;41.58;;;20.77;;
49029;SDS011;43337;52.070;4.508;2023-04-22T07:12:28;36.10;;;18.90;;
49029;SDS011;43337;52.070;4.508;2023-04-22T07:14:53;36.35;;;19.00;;
49029;SDS011;43337;52.070;4.508;2023-04-22T07:17:19;32.30;;;18.58;;
49029;SDS011;43337;52.070;4.508;2023-04-22T07:19:46;33.50;;;17.70;;
49029;SDS011;43337;52.070;4.508;2023-04-22T07:22:12;34.80;;;19.75;;
49029;SDS011;43337;52.070;4.508;2023-04-22T07:24:37;33.25;;;18.67;;
49029;SDS011;43337;52.070;4.508;2023-04-22T07:27:03;28.23;;;16.58;;
49029;SDS011;43337;52.070;4.508;2023-04-22T07:29:29;30.20;;;17.20;;
49029;SDS011;43337;52.070;4.508;2023-04-22T07:31:54;31.40;;;17.58;;
49029;SDS011;43337;52.070;4.508;2023-04-22T07:34:26;31.92;;;17.02;;
49029;SDS011;43337;52.070;4.508;2023-04-22T07:36:51;33.28;;;18.60;;
49029;SDS011;43337;52.070;4.508;2023-04-22T07:39:17;33.45;;;17.75;;
49029;SDS011;43337;52.070;4.508;2023-04-22T07:41:43;28.80;;;16.55;;
49029;SDS011;43337;52.070;4.508;2023-04-22T07:44:08;28.35;;;16.02;;
49029;SDS011;43337;52.070;4.508;2023-04-22T07:46:34;26.20;;;15.07;;
49029;SDS011;43337;52.070;4.508;2023-04-22T07:48:59;27.80;;;15.52;;
49029;SDS011;43337;52.070;4.508;2023-04-22T07:51:25;25.00;;;14.88;;
49029;SDS011;43337;52.070;4.508;2023-04-22T07:53:50;27.27;;;15.32;;
49029;SDS011;43337;52.070;4.508;2023-04-22T07:56:15;22.10;;;13.57;;
49029;SDS011;43337;52.070;4.508;2023-04-22T07:58:42;26.90;;;15.20;;
49029;SDS011;43337;52.070;4.508;2023-04-22T08:01:07;26.40;;;14.77;;
49029;SDS011;43337;52.070;4.508;2023-04-22T08:03:33;24.58;;;14.00;;
49029;SDS011;43337;52.070;4.508;2023-04-22T08:05:58;21.02;;;12.88;;
49029;SDS011;43337;52.070;4.508;2023-04-22T08:08:24;20.38;;;12.45;;
49029;SDS011;43337;52.070;4.508;2023-04-22T08:10:49;20.63;;;12.93;;
49029;SDS011;43337;52.070;4.508;2023-04-22T08:13:15;20.90;;;11.73;;
49029;SDS011;43337;52.070;4.508;2023-04-22T08:15:40;18.40;;;11.10;;
49029;SDS011;43337;52.070;4.508;2023-04-22T08:18:05;23.23;;;12.00;;
49029;SDS011;43337;52.070;4.508;2023-04-22T08:20:31;18.30;;;10.82;;
49029;SDS011;43337;52.070;4.508;2023-04-22T08:22:56;14.63;;;9.57;;
49029;SDS011;43337;52.070;4.508;2023-04-22T08:25:24;16.83;;;9.20;;
49029;SDS011;43337;52.070;4.508;2023-04-22T08:27:50;16.52;;;9.88;;
49029;SDS011;43337;52.070;4.508;2023-04-22T08:30:16;14.63;;;9.40;;
49029;SDS011;43337;52.070;4.508;2023-04-22T08:32:41;17.35;;;9.93;;
49029;SDS011;43337;52.070;4.508;2023-04-22T08:35:08;16.73;;;10.48;;
49029;SDS011;43337;52.070;4.508;2023-04-22T08:37:33;17.60;;;11.82;;
49029;SDS011;43337;52.070;4.508;2023-04-22T08:39:59;17.58;;;10.63;;
49029;SDS011;43337;52.070;4.508;2023-04-22T08:42:25;16.80;;;9.98;;
49029;SDS011;43337;52.070;4.508;2023-04-22T08:44:51;19.50;;;11.57;;
49029;SDS011;43337;52.070;4.508;2023-04-22T08:47:18;25.98;;;10.90;;
49029;SDS011;43337;52.070;4.508;2023-04-22T08:49:45;19.40;;;11.27;;
49029;SDS011;43337;52.070;4.508;2023-04-22T08:52:11;16.30;;;10.70;;
49029;SDS011;43337;52.070;4.508;2023-04-22T08:54:39;13.82;;;7.70;;
49029;SDS011;43337;52.070;4.508;2023-04-22T08:57:08;13.65;;;8.45;;
49029;SDS011;43337;52.070;4.508;2023-04-22T08:59:35;12.88;;;8.25;;
49029;SDS011;43337;52.070;4.508;2023-04-22T09:02:01;15.65;;;9.20;;
49029;SDS011;43337;52.070;4.508;2023-04-22T09:04:28;13.93;;;8.95;;
49029;SDS011;43337;52.070;4.508;2023-04-22T09:06:54;14.05;;;8.50;;
49029;SDS011;43337;52.070;4.508;2023-04-22T09:09:20;8.73;;;5.90;;
49029;SDS011;43337;52.070;4.508;2023-04-22T09:11:45;10.93;;;6.90;;
49029;SDS011;43337;52.070;4.508;2023-04-22T09:14:11;12.50;;;7.45;;
49029;SDS011;43337;52.070;4.508;2023-04-22T09:16:40;13.18;;;7.63;;
49029;SDS011;43337;52.070;4.508;2023-04-22T09:19:11;11.77;;;7.77;;
49029;SDS011;43337;52.070;4.508;2023-04-22T09:21:38;14.63;;;6.97;;
49029;SDS011;43337;52.070;4.508;2023-04-22T09:24:05;12.55;;;8.13;;
49029;SDS011;43337;52.070;4.508;2023-04-22T09:26:37;11.88;;;7.38;;
49029;SDS011;43337;52.070;4.508;2023-04-22T09:29:05;9.10;;;5.55;;
49029;SDS011;43337;52.070;4.508;2023-04-22T09:31:34;9.35;;;6.53;;
49029;SDS011;43337;52.070;4.508;2023-04-22T09:34:02;11.60;;;7.15;;
49029;SDS011;43337;52.070;4.508;2023-04-22T09:36:28;9.93;;;6.57;;
49029;SDS011;43337;52.070;4.508;2023-04-22T09:38:56;9.35;;;6.03;;
49029;SDS011;43337;52.070;4.508;2023-04-22T09:41:27;10.70;;;6.10;;
49029;SDS011;43337;52.070;4.508;2023-04-22T09:43:56;12.00;;;6.72;;
49029;SDS011;43337;52.070;4.508;2023-04-22T09:46:23;9.23;;;5.40;;
49029;SDS011;43337;52.070;4.508;2023-04-22T09:48:50;8.38;;;5.60;;
49029;SDS011;43337;52.070;4.508;2023-04-22T09:51:17;8.80;;;5.95;;
49029;SDS011;43337;52.070;4.508;2023-04-22T09:56:42;8.98;;;5.30;;
49029;SDS011;43337;52.070;4.508;2023-04-22T09:59:13;10.52;;;6.07;;
49029;SDS011;43337;52.070;4.508;2023-04-22T10:01:40;8.48;;;5.63;;
49029;SDS011;43337;52.070;4.508;2023-04-22T10:04:06;10.20;;;6.30;;
49029;SDS011;43337;52.070;4.508;2023-04-22T10:06:38;11.60;;;7.20;;
49029;SDS011;43337;52.070;4.508;2023-04-22T10:09:04;8.77;;;5.88;;
49029;SDS011;43337;52.070;4.508;2023-04-22T10:11:31;11.25;;;6.28;;
49029;SDS011;43337;52.070;4.508;2023-04-22T10:13:57;10.20;;;6.40;;
49029;SDS011;43337;52.070;4.508;2023-04-22T10:16:25;13.00;;;5.90;;
49029;SDS011;43337;52.070;4.508;2023-04-22T10:18:53;9.82;;;6.20;;
49029;SDS011;43337;52.070;4.508;2023-04-22T10:21:20;12.63;;;7.85;;
49029;SDS011;43337;52.070;4.508;2023-04-22T10:23:48;13.93;;;7.00;;
49029;SDS011;43337;52.070;4.508;2023-04-22T10:29:11;11.55;;;7.15;;
49029;SDS011;43337;52.070;4.508;2023-04-22T10:31:41;10.25;;;7.18;;
49029;SDS011;43337;52.070;4.508;2023-04-22T10:34:09;10.98;;;7.45;;
49029;SDS011;43337;52.070;4.508;2023-04-22T10:36:53;12.70;;;7.70;;
49029;SDS011;43337;52.070;4.508;2023-04-22T10:39:20;12.77;;;7.78;;
49029;SDS011;43337;52.070;4.508;2023-04-22T10:42:06;14.00;;;8.18;;
49029;SDS011;43337;52.070;4.508;2023-04-22T10:44:49;13.30;;;8.45;;
49029;SDS011;43337;52.070;4.508;2023-04-22T10:50:36;15.63;;;9.55;;
49029;SDS011;43337;52.070;4.508;2023-04-22T10:52:56;14.05;;;8.35;;
49029;SDS011;43337;52.070;4.508;2023-04-22T10:55:23;13.65;;;8.77;;
49029;SDS011;43337;52.070;4.508;2023-04-22T10:57:50;14.32;;;8.90;;
49029;SDS011;43337;52.070;4.508;2023-04-22T11:00:18;17.58;;;9.18;;
49029;SDS011;43337;52.070;4.508;2023-04-22T11:03:10;15.18;;;9.55;;
49029;SDS011;43337;52.070;4.508;2023-04-22T11:05:37;15.93;;;9.65;;
49029;SDS011;43337;52.070;4.508;2023-04-22T11:08:09;15.63;;;9.82;;
49029;SDS011;43337;52.070;4.508;2023-04-22T11:13:28;26.88;;;12.98;;
49029;SDS011;43337;52.070;4.508;2023-04-22T11:15:53;22.40;;;12.23;;
49029;SDS011;43337;52.070;4.508;2023-04-22T11:18:23;24.27;;;14.23;;
49029;SDS011;43337;52.070;4.508;2023-04-22T11:20:50;24.80;;;14.23;;
49029;SDS011;43337;52.070;4.508;2023-04-22T11:23:26;30.17;;;16.10;;
49029;SDS011;43337;52.070;4.508;2023-04-22T11:25:53;29.52;;;15.95;;
49029;SDS011;43337;52.070;4.508;2023-04-22T11:28:20;30.15;;;15.65;;
49029;SDS011;43337;52.070;4.508;2023-04-22T11:30:47;32.53;;;16.95;;
49029;SDS011;43337;52.070;4.508;2023-04-22T11:33:13;31.10;;;16.90;;
49029;SDS011;43337;52.070;4.508;2023-04-22T11:35:39;37.42;;;18.80;;
49029;SDS011;43337;52.070;4.508;2023-04-22T11:38:07;39.40;;;20.92;;
49029;SDS011;43337;52.070;4.508;2023-04-22T11:43:01;48.42;;;21.75;;
49029;SDS011;43337;52.070;4.508;2023-04-22T11:45:34;41.58;;;21.70;;
49029;SDS011;43337;52.070;4.508;2023-04-22T11:48:01;45.33;;;23.42;;
49029;SDS011;43337;52.070;4.508;2023-04-22T11:50:29;43.05;;;22.33;;
49029;SDS011;43337;52.070;4.508;2023-04-22T11:52:57;49.97;;;24.17;;
49029;SDS011;43337;52.070;4.508;2023-04-22T11:57:58;54.65;;;27.98;;
49029;SDS011;43337;52.070;4.508;2023-04-22T12:00:43;47.47;;;24.40;;
49029;SDS011;43337;52.070;4.508;2023-04-22T12:10:53;46.53;;;23.60;;
49029;SDS011;43337;52.070;4.508;2023-04-22T12:13:20;49.33;;;23.17;;
49029;SDS011;43337;52.070;4.508;2023-04-22T12:16:24;48.90;;;24.45;;
49029;SDS011;43337;52.070;4.508;2023-04-22T12:18:50;48.50;;;24.67;;
49029;SDS011;43337;52.070;4.508;2023-04-22T12:21:18;55.35;;;27.10;;
49029;SDS011;43337;52.070;4.508;2023-04-22T12:23:54;47.65;;;23.33;;
49029;SDS011;43337;52.070;4.508;2023-04-22T12:26:22;48.25;;;23.77;;
49029;SDS011;43337;52.070;4.508;2023-04-22T12:28:49;49.17;;;24.15;;
49029;SDS011;43337;52.070;4.508;2023-04-22T12:31:16;44.15;;;24.00;;
49029;SDS011;43337;52.070;4.508;2023-04-22T12:33:45;48.20;;;22.20;;
49029;SDS011;43337;52.070;4.508;2023-04-22T12:36:12;48.75;;;22.77;;
49029;SDS011;43337;52.070;4.508;2023-04-22T12:38:38;45.35;;;21.65;;
49029;SDS011;43337;52.070;4.508;2023-04-22T12:41:06;48.08;;;22.33;;
49029;SDS011;43337;52.070;4.508;2023-04-22T12:43:32;50.38;;;23.08;;
49029;SDS011;43337;52.070;4.508;2023-04-22T12:46:03;48.25;;;22.45;;
49029;SDS011;43337;52.070;4.508;2023-04-22T12:48:30;49.50;;;23.73;;
49029;SDS011;43337;52.070;4.508;2023-04-22T12:50:56;48.53;;;24.40;;
49029;SDS011;43337;52.070;4.508;2023-04-22T12:53:22;50.35;;;23.55;;
49029;SDS011;43337;52.070;4.508;2023-04-22T12:55:48;47.03;;;23.50;;
49029;SDS011;43337;52.070;4.508;2023-04-22T13:01:36;46.42;;;22.42;;
49029;SDS011;43337;52.070;4.508;2023-04-22T13:04:03;49.03;;;22.95;;
49029;SDS011;43337;52.070;4.508;2023-04-22T13:06:29;43.58;;;22.17;;
49029;SDS011;43337;52.070;4.508;2023-04-22T13:08:56;49.75;;;24.02;;
49029;SDS011;43337;52.070;4.508;2023-04-22T13:11:22;51.05;;;25.02;;
49029;SDS011;43337;52.070;4.508;2023-04-22T13:13:48;50.85;;;23.20;;
49029;SDS011;43337;52.070;4.508;2023-04-22T13:16:14;55.20;;;23.88;;
49029;SDS011;43337;52.070;4.508;2023-04-22T13:18:39;53.75;;;25.70;;
49029;SDS011;43337;52.070;4.508;2023-04-22T13:21:05;52.08;;;25.50;;
49029;SDS011;43337;52.070;4.508;2023-04-22T13:23:31;54.75;;;26.45;;
49029;SDS011;43337;52.070;4.508;2023-04-22T13:25:59;49.42;;;24.83;;
49029;SDS011;43337;52.070;4.508;2023-04-22T13:28:24;52.85;;;25.35;;
49029;SDS011;43337;52.070;4.508;2023-04-22T13:30:50;51.38;;;25.17;;
49029;SDS011;43337;52.070;4.508;2023-04-22T13:33:15;51.30;;;24.77;;
49029;SDS011;43337;52.070;4.508;2023-04-22T13:35:41;48.88;;;25.33;;
49029;SDS011;43337;52.070;4.508;2023-04-22T13:38:08;50.03;;;23.90;;
49029;SDS011;43337;52.070;4.508;2023-04-22T13:40:33;53.25;;;24.70;;
49029;SDS011;43337;52.070;4.508;2023-04-22T13:42:59;49.25;;;23.75;;
49029;SDS011;43337;52.070;4.508;2023-04-22T13:45:24;50.05;;;22.58;;
49029;SDS011;43337;52.070;4.508;2023-04-22T13:47:50;53.40;;;24.67;;
49029;SDS011;43337;52.070;4.508;2023-04-22T13:50:16;52.50;;;24.75;;
49029;SDS011;43337;52.070;4.508;2023-04-22T13:52:41;51.90;;;24.75;;
49029;SDS011;43337;52.070;4.508;2023-04-22T13:55:07;49.72;;;24.23;;
49029;SDS011;43337;52.070;4.508;2023-04-22T13:57:33;46.10;;;23.45;;
49029;SDS011;43337;52.070;4.508;2023-04-22T13:59:58;55.70;;;27.65;;
49029;SDS011;43337;52.070;4.508;2023-04-22T14:02:24;52.30;;;25.00;;
49029;SDS011;43337;52.070;4.508;2023-04-22T14:04:49;51.08;;;24.10;;
49029;SDS011;43337;52.070;4.508;2023-04-22T14:07:15;55.97;;;24.45;;
49029;SDS011;43337;52.070;4.508;2023-04-22T14:09:40;54.97;;;25.67;;
49029;SDS011;43337;52.070;4.508;2023-04-22T14:12:06;49.83;;;24.30;;
49029;SDS011;43337;52.070;4.508;2023-04-22T14:14:32;48.33;;;23.52;;
49029;SDS011;43337;52.070;4.508;2023-04-22T14:16:57;54.25;;;25.95;;
49029;SDS011;43337;52.070;4.508;2023-04-22T14:19:23;54.35;;;24.75;;
49029;SDS011;43337;52.070;4.508;2023-04-22T14:21:49;61.88;;;27.20;;
49029;SDS011;43337;52.070;4.508;2023-04-22T14:24:14;59.83;;;26.70;;
49029;SDS011;43337;52.070;4.508;2023-04-22T14:26:40;55.80;;;27.63;;
49029;SDS011;43337;52.070;4.508;2023-04-22T14:29:05;63.63;;;28.90;;
49029;SDS011;43337;52.070;4.508;2023-04-22T14:31:31;66.55;;;30.42;;
49029;SDS011;43337;52.070;4.508;2023-04-22T14:33:57;64.45;;;30.20;;
49029;SDS011;43337;52.070;4.508;2023-04-22T14:36:22;71.88;;;31.65;;
49029;SDS011;43337;52.070;4.508;2023-04-22T14:38:47;67.55;;;30.30;;
49029;SDS011;43337;52.070;4.508;2023-04-22T14:41:13;67.30;;;29.92;;
49029;SDS011;43337;52.070;4.508;2023-04-22T14:43:38;69.72;;;30.65;;
49029;SDS011;43337;52.070;4.508;2023-04-22T14:46:04;63.45;;;28.02;;
49029;SDS011;43337;52.070;4.508;2023-04-22T14:48:29;66.28;;;29.48;;